Terminal Aerodrome Forecast
Issued by NWS

Home | Current Version | Previous Version | Text Only | Print | Product List | Glossary On
Versions: 1 2 3 4 5 6 7 8 9 10 11 12 13
000
FTUS42 TJSJ 181100
TAFJSJ
TAF
TJSJ 181133Z 1812/1912 00000KT P6SM SKC
     FM181300 08005KT P6SM VCTS SCT030CB
      TEMPO 1814/1818 4SM -TSRA BR BKN030CB
     FM182200 12006KT P6SM VCTS BKN040CB=

USA.gov is the U.S. government's official web portal to all federal, state and local government web resources and services.